createdAt,value
2023-01-06T00:01:39.818Z,100.00
2023-01-06T00:06:44.108Z,100.00
2023-01-06T00:11:46.791Z,100.00
2023-01-06T00:16:49.564Z,100.00
2023-01-06T00:21:53.695Z,100.00
2023-01-06T00:26:56.486Z,100.00
2023-01-06T00:32:00.068Z,100.00
2023-01-06T00:37:05.024Z,100.00
2023-01-06T00:42:08.745Z,100.00
2023-01-06T00:47:12.609Z,100.00
2023-01-06T00:52:16.772Z,100.00
2023-01-06T00:57:19.472Z,100.00
2023-01-06T01:02:22.804Z,100.00
2023-01-06T01:07:26.980Z,100.00
2023-01-06T01:12:29.730Z,100.00
2023-01-06T01:17:33.752Z,100.00
2023-01-06T01:22:37.877Z,100.00
2023-01-06T01:27:40.583Z,100.00
2023-01-06T01:32:43.353Z,100.00
2023-01-06T01:37:47.508Z,100.00
2023-01-06T01:42:50.201Z,100.00
2023-01-06T01:47:56.685Z,100.00
2023-01-06T01:53:04.700Z,100.00
2023-01-06T01:58:10.229Z,100.00
2023-01-06T02:03:13.991Z,100.00
2023-01-06T02:08:23.845Z,100.00
2023-01-06T02:13:28.327Z,100.00
2023-01-06T02:18:40.309Z,100.00
2023-01-06T02:23:59.687Z,100.00
2023-01-06T02:29:43.987Z,100.00
2023-01-06T02:34:57.874Z,100.00
2023-01-06T02:40:11.915Z,100.00
2023-01-06T02:45:21.061Z,100.00
2023-01-06T02:50:35.921Z,100.00
2023-01-06T02:55:41.939Z,100.00
2023-01-06T03:00:49.256Z,100.00
2023-01-06T03:05:57.297Z,100.00
2023-01-06T03:11:02.178Z,100.00
2023-01-06T03:16:07.157Z,100.00
2023-01-06T03:21:15.986Z,100.00
2023-01-06T03:26:20.724Z,100.00
2023-01-06T03:31:27.709Z,100.00
2023-01-06T03:36:40.228Z,99.95
2023-01-06T03:42:04.360Z,100.00
2023-01-06T03:47:13.573Z,99.83
2023-01-06T03:52:23.605Z,99.93
2023-01-06T03:57:28.703Z,99.48
2023-01-06T04:02:31.637Z,99.60
2023-01-06T04:07:35.999Z,99.26
2023-01-06T04:12:41.957Z,99.18
2023-01-06T04:17:50.007Z,98.96
2023-01-06T04:22:56.993Z,98.67
2023-01-06T04:28:00.495Z,98.96
2023-01-06T04:33:03.650Z,98.58
2023-01-06T04:38:07.877Z,98.95
2023-01-06T04:43:16.012Z,98.78
2023-01-06T04:48:18.831Z,99.13
2023-01-06T04:53:22.887Z,98.82
2023-01-06T04:58:25.734Z,98.63
2023-01-06T05:03:28.669Z,98.78
2023-01-06T05:08:33.345Z,98.63
2023-01-06T05:13:36.798Z,98.97
2023-01-06T05:18:39.601Z,98.72
2023-01-06T05:23:43.820Z,98.54
2023-01-06T05:28:46.750Z,98.51
2023-01-06T05:33:49.498Z,98.42
2023-01-06T05:38:54.822Z,98.42
2023-01-06T05:43:58.363Z,98.50
2023-01-06T05:49:01.207Z,98.56
2023-01-06T05:54:08.751Z,98.29
2023-01-06T05:59:11.557Z,98.41
2023-01-06T06:04:14.661Z,98.74
2023-01-06T06:09:19.108Z,98.36
2023-01-06T06:14:21.943Z,98.33
2023-01-06T06:19:24.773Z,98.16
2023-01-06T06:24:28.845Z,98.42
2023-01-06T06:29:31.695Z,98.26
2023-01-06T06:34:34.562Z,98.23
2023-01-06T06:39:38.668Z,98.01
2023-01-06T06:44:41.405Z,98.21
2023-01-06T06:49:44.165Z,98.36
2023-01-06T06:54:48.380Z,98.17
2023-01-06T06:59:51.127Z,98.32
2023-01-06T07:04:53.851Z,98.19
2023-01-06T07:09:58.044Z,98.14
2023-01-06T07:15:00.721Z,98.18
2023-01-06T07:20:03.478Z,98.10
2023-01-06T07:25:09.811Z,98.06
2023-01-06T07:30:13.546Z,97.92
2023-01-06T07:35:16.506Z,97.69
2023-01-06T07:40:20.972Z,97.88
2023-01-06T07:45:23.752Z,97.99
2023-01-06T07:50:26.777Z,97.75
2023-01-06T07:55:31.350Z,97.92
2023-01-06T08:00:34.297Z,97.68
2023-01-06T08:05:38.429Z,97.59
2023-01-06T08:10:43.111Z,97.72
2023-01-06T08:15:48.534Z,97.76
2023-01-06T08:20:51.331Z,97.46
2023-01-06T08:26:02.525Z,97.53
2023-01-06T08:31:05.643Z,97.40
2023-01-06T08:36:10.302Z,97.43
2023-01-06T08:41:15.062Z,97.42
2023-01-06T08:46:19.339Z,97.31
2023-01-06T08:51:23.698Z,97.64
2023-01-06T08:56:29.980Z,97.41
2023-01-06T09:01:34.877Z,97.45
2023-01-06T09:06:38.836Z,97.17
2023-01-06T09:11:43.863Z,97.33
2023-01-06T09:16:47.801Z,97.94
2023-01-06T09:21:50.732Z,97.66
2023-01-06T09:26:54.807Z,97.99
2023-01-06T09:31:57.516Z,97.64
2023-01-06T09:37:00.222Z,97.61
2023-01-06T09:42:14.049Z,97.32
2023-01-06T09:47:19.984Z,97.47
2023-01-06T09:52:28.827Z,97.30
2023-01-06T09:57:36.899Z,97.32
2023-01-06T10:02:40.994Z,97.21
2023-01-06T10:07:54.364Z,97.21
2023-01-06T10:13:05.158Z,97.28
2023-01-06T10:18:22.538Z,97.03
2023-01-06T10:23:41.636Z,96.79
2023-01-06T10:28:53.220Z,96.57
2023-01-06T10:33:57.612Z,96.56
2023-01-06T10:39:01.804Z,96.45
2023-01-06T10:44:06.096Z,96.48
2023-01-06T10:49:14.700Z,96.23
2023-01-06T10:54:22.155Z,96.29
2023-01-06T10:59:26.459Z,96.01
2023-01-06T11:04:29.445Z,95.91
2023-01-06T11:09:34.907Z,95.68
2023-01-06T11:14:40.253Z,95.45
2023-01-06T11:19:44.135Z,95.00
2023-01-06T11:24:51.888Z,94.26
2023-01-06T11:29:56.295Z,94.03
2023-01-06T11:35:00.696Z,93.99
2023-01-06T11:40:11.651Z,93.61
2023-01-06T11:45:31.628Z,93.12
2023-01-06T11:50:34.521Z,93.29
2023-01-06T11:55:37.233Z,93.23
2023-01-06T12:00:46.491Z,93.11
2023-01-06T12:05:53.278Z,92.21
2023-01-06T12:10:58.543Z,91.00
2023-01-06T12:16:05.516Z,89.68
2023-01-06T12:21:14.152Z,88.80
2023-01-06T12:26:19.699Z,89.41
2023-01-06T12:31:27.848Z,89.78
2023-01-06T12:36:38.440Z,89.66
2023-01-06T12:41:43.720Z,89.57
2023-01-06T12:46:54.085Z,88.89
2023-01-06T12:51:57.916Z,88.82
2023-01-06T12:57:11.591Z,89.31
2023-01-06T13:02:24.595Z,89.50
2023-01-06T13:07:44.173Z,89.19
2023-01-06T13:12:54.774Z,87.67
2023-01-06T13:18:08.195Z,87.46
2023-01-06T13:23:27.133Z,87.47
2023-01-06T13:28:40.540Z,87.48
2023-01-06T13:34:02.291Z,87.56
2023-01-06T13:39:07.690Z,87.65
2023-01-06T13:44:14.829Z,87.64
2023-01-06T13:49:19.604Z,87.34
2023-01-06T13:55:00.314Z,87.47
2023-01-06T14:00:24.203Z,87.08
2023-01-06T14:05:52.612Z,86.92
2023-01-06T14:11:03.842Z,86.85
2023-01-06T14:16:09.820Z,86.73
2023-01-06T14:21:29.260Z,86.46
2023-01-06T14:26:50.023Z,86.51
2023-01-06T14:31:52.816Z,86.25
2023-01-06T14:36:57.651Z,86.41
2023-01-06T14:42:02.310Z,86.53
2023-01-06T14:47:07.387Z,86.78
2023-01-06T14:52:16.668Z,86.74
2023-01-06T14:57:27.593Z,86.48
2023-01-06T15:02:30.561Z,86.41
2023-01-06T15:07:34.888Z,86.00
2023-01-06T15:12:40.269Z,86.38
2023-01-06T15:17:44.946Z,86.82
2023-01-06T15:22:50.130Z,86.89
2023-01-06T15:27:55.292Z,86.69
2023-01-06T15:32:58.154Z,86.62
2023-01-06T15:38:04.787Z,86.51
2023-01-06T15:43:08.333Z,86.33
2023-01-06T15:48:13.371Z,86.52
2023-01-06T15:53:21.955Z,86.36
2023-01-06T15:58:27.260Z,86.41
2023-01-06T16:03:31.802Z,86.39
2023-01-06T16:08:36.275Z,86.45
2023-01-06T16:13:38.969Z,86.32
2023-01-06T16:18:43.165Z,86.25
2023-01-06T16:23:51.400Z,86.18
2023-01-06T16:28:56.004Z,86.23
2023-01-06T16:34:16.813Z,86.24
2023-01-06T16:39:20.947Z,86.35
2023-01-06T16:44:23.653Z,86.79
2023-01-06T16:49:26.548Z,86.97
2023-01-06T16:54:30.810Z,86.93
2023-01-06T16:59:36.355Z,86.90
2023-01-06T17:04:39.184Z,87.30
2023-01-06T17:09:43.959Z,87.52
2023-01-06T17:14:46.701Z,87.72
2023-01-06T17:19:49.478Z,87.90
2023-01-06T17:24:53.644Z,87.43
2023-01-06T17:30:00.167Z,87.45
2023-01-06T17:35:03.461Z,87.43
2023-01-06T17:40:13.550Z,87.26
2023-01-06T17:45:25.449Z,87.59
2023-01-06T17:50:29.977Z,87.63
2023-01-06T17:55:45.698Z,88.19
2023-01-06T18:00:48.449Z,88.18
2023-01-06T18:06:10.085Z,88.64
2023-01-06T18:11:29.639Z,88.73
2023-01-06T18:16:35.194Z,89.17
2023-01-06T18:21:39.218Z,89.18
2023-01-06T18:26:48.114Z,89.13
2023-01-06T18:31:52.475Z,89.17
2023-01-06T18:36:56.612Z,89.25
2023-01-06T18:42:27.143Z,89.58
2023-01-06T18:47:31.377Z,89.76
2023-01-06T18:52:40.092Z,89.38
2023-01-06T18:57:45.785Z,88.88
2023-01-06T19:02:52.297Z,88.63
2023-01-06T19:07:57.626Z,88.55
2023-01-06T19:13:02.246Z,88.35
2023-01-06T19:18:06.758Z,88.51
2023-01-06T19:23:18.609Z,88.57
2023-01-06T19:28:24.257Z,88.91
2023-01-06T19:33:41.413Z,89.09
2023-01-06T19:38:44.836Z,88.39
2023-01-06T19:43:49.681Z,88.64
2023-01-06T19:48:52.819Z,88.46
2023-01-06T19:53:58.823Z,88.42
2023-01-06T19:59:05.219Z,88.40
2023-01-06T20:04:16.896Z,88.10
2023-01-06T20:09:21.691Z,88.23
2023-01-06T20:14:26.054Z,88.45
2023-01-06T20:19:29.084Z,88.10
2023-01-06T20:24:31.956Z,88.20
2023-01-06T20:29:36.675Z,88.56
2023-01-06T20:34:39.401Z,88.30
2023-01-06T20:39:42.071Z,88.00
2023-01-06T20:44:46.791Z,88.22
2023-01-06T20:49:49.622Z,88.15
2023-01-06T20:54:52.489Z,88.15
2023-01-06T20:59:56.901Z,87.91
2023-01-06T21:04:59.873Z,87.87
2023-01-06T21:10:02.715Z,87.92
2023-01-06T21:15:08.651Z,87.99
2023-01-06T21:20:12.597Z,87.81
2023-01-06T21:25:17.465Z,87.79
2023-01-06T21:30:22.635Z,87.80
2023-01-06T21:35:25.447Z,87.91
2023-01-06T21:40:28.182Z,87.84
2023-01-06T21:45:32.372Z,87.91
2023-01-06T21:50:38.630Z,87.83
2023-01-06T21:55:41.519Z,87.69
2023-01-06T22:00:45.619Z,87.62
2023-01-06T22:05:48.497Z,87.36
2023-01-06T22:10:51.745Z,87.32
2023-01-06T22:15:56.464Z,87.46
2023-01-06T22:20:59.617Z,87.19
2023-01-06T22:26:02.359Z,86.97
2023-01-06T22:31:06.678Z,87.06
2023-01-06T22:36:09.923Z,87.05
2023-01-06T22:41:12.683Z,87.12
2023-01-06T22:46:16.839Z,87.09
2023-01-06T22:51:19.602Z,86.95
2023-01-06T22:56:22.377Z,86.91
2023-01-06T23:01:26.560Z,87.28
2023-01-06T23:06:29.444Z,87.16
2023-01-06T23:11:32.916Z,87.48
2023-01-06T23:16:38.207Z,87.21
2023-01-06T23:21:42.401Z,86.99
2023-01-06T23:26:46.848Z,86.56
2023-01-06T23:31:50.928Z,86.76
2023-01-06T23:36:53.626Z,86.98
2023-01-06T23:41:56.333Z,86.99
2023-01-06T23:47:00.534Z,87.13
2023-01-06T23:52:03.223Z,87.22
2023-01-06T23:57:05.900Z,87.40
